createdAt,value
2019-05-10T00:00:46.886Z,10.63
2019-05-10T00:01:46.782Z,10.61
2019-05-10T00:02:46.739Z,10.59
2019-05-10T00:03:46.697Z,10.60
2019-05-10T00:04:46.658Z,10.54
2019-05-10T00:05:46.632Z,10.60
2019-05-10T00:06:46.590Z,10.53
2019-05-10T00:07:46.540Z,10.42
2019-05-10T00:08:46.599Z,10.40
2019-05-10T00:09:46.472Z,10.35
2019-05-10T00:10:46.425Z,10.28
2019-05-10T00:11:49.153Z,10.31
2019-05-10T00:12:46.347Z,10.31
2019-05-10T00:13:46.318Z,10.37
2019-05-10T00:14:46.264Z,10.34
2019-05-10T00:15:46.231Z,10.25
2019-05-10T00:16:46.185Z,10.22
2019-05-10T00:17:46.143Z,10.22
2019-05-10T00:18:46.110Z,10.17
2019-05-10T00:19:46.072Z,10.16
2019-05-10T00:20:46.033Z,10.19
2019-05-10T00:21:46.015Z,10.19
2019-05-10T00:22:45.952Z,10.19
2019-05-10T00:23:45.967Z,10.23
2019-05-10T00:25:00.763Z,10.20
2019-05-10T00:25:45.835Z,10.19
2019-05-10T00:26:45.796Z,10.26
2019-05-10T00:27:45.751Z,10.25
2019-05-10T00:28:45.717Z,10.25
2019-05-10T00:29:45.674Z,10.26
2019-05-10T00:30:45.639Z,10.25
2019-05-10T00:31:45.602Z,10.22
2019-05-10T00:32:45.556Z,10.16
2019-05-10T00:33:45.522Z,10.17
2019-05-10T00:34:45.478Z,10.19
2019-05-10T00:35:45.436Z,10.16
2019-05-10T00:36:45.395Z,10.20
2019-05-10T00:37:45.357Z,10.09
2019-05-10T00:38:45.389Z,10.16
2019-05-10T00:39:45.281Z,10.05
2019-05-10T00:40:45.242Z,10.07
2019-05-10T00:41:45.207Z,10.15
2019-05-10T00:42:45.158Z,10.09
2019-05-10T00:43:45.123Z,10.02
2019-05-10T00:44:45.080Z,10.10
2019-05-10T00:45:45.043Z,10.13
2019-05-10T00:46:44.999Z,10.22
2019-05-10T00:47:44.961Z,10.17
2019-05-10T00:48:44.921Z,10.17
2019-05-10T00:49:44.883Z,10.15
2019-05-10T00:50:44.846Z,10.05
2019-05-10T00:51:44.804Z,10.09
2019-05-10T00:52:44.764Z,10.02
2019-05-10T00:53:44.783Z,10.16
2019-05-10T00:54:44.687Z,10.10
2019-05-10T00:55:44.645Z,10.02
2019-05-10T00:56:44.604Z,10.10
2019-05-10T00:57:44.574Z,10.17
2019-05-10T00:58:44.532Z,10.17
2019-05-10T00:59:44.488Z,10.16
2019-05-10T01:00:44.447Z,10.17
2019-05-10T01:01:44.405Z,10.19
2019-05-10T01:02:44.373Z,10.16
2019-05-10T01:03:44.331Z,10.16
2019-05-10T01:04:44.290Z,10.07
2019-05-10T01:05:44.256Z,10.09
2019-05-10T01:06:44.218Z,10.10
2019-05-10T01:07:44.176Z,10.07
2019-05-10T01:08:44.128Z,10.19
2019-05-10T01:09:44.091Z,10.12
2019-05-10T01:10:44.054Z,10.13
2019-05-10T01:11:44.013Z,10.12
2019-05-10T01:12:43.980Z,10.13
2019-05-10T01:13:43.937Z,10.17
2019-05-10T01:14:43.890Z,10.15
2019-05-10T01:15:46.600Z,10.22
2019-05-10T01:16:43.836Z,10.12
2019-05-10T01:17:43.783Z,10.17
2019-05-10T01:18:43.736Z,10.13
2019-05-10T01:19:43.692Z,10.12
2019-05-10T01:20:43.658Z,10.15
2019-05-10T01:21:43.614Z,10.16
2019-05-10T01:22:43.581Z,10.10
2019-05-10T01:23:43.536Z,10.12
2019-05-10T01:24:43.499Z,10.15
2019-05-10T01:25:43.463Z,10.22
2019-05-10T01:26:43.415Z,10.20
2019-05-10T01:27:43.378Z,10.16
2019-05-10T01:28:43.337Z,10.16
2019-05-10T01:29:43.323Z,10.16
2019-05-10T01:30:43.262Z,10.16
2019-05-10T01:31:43.222Z,10.26
2019-05-10T01:32:43.178Z,10.23
2019-05-10T01:33:43.139Z,10.23
2019-05-10T01:34:43.101Z,10.26
2019-05-10T01:35:43.062Z,10.16
2019-05-10T01:36:43.022Z,10.28
2019-05-10T01:37:43.008Z,10.28
2019-05-10T01:38:42.942Z,10.26
2019-05-10T01:39:42.905Z,10.33
2019-05-10T01:40:42.863Z,10.41
2019-05-10T01:41:42.819Z,10.25
2019-05-10T01:42:42.785Z,10.31
2019-05-10T01:43:42.746Z,10.31
2019-05-10T01:44:51.360Z,10.31
2019-05-10T01:46:47.111Z,10.42
2019-05-10T01:47:47.046Z,10.41
2019-05-10T01:48:47.002Z,10.38
2019-05-10T01:49:46.965Z,10.37
2019-05-10T01:50:46.928Z,10.38
2019-05-10T01:51:46.898Z,10.40
2019-05-10T01:52:46.843Z,10.38
2019-05-10T01:53:46.806Z,10.41
2019-05-10T01:54:46.767Z,10.40
2019-05-10T01:55:52.289Z,10.42
2019-05-10T01:56:46.689Z,10.38
2019-05-10T01:57:46.648Z,10.40
2019-05-10T01:58:46.607Z,10.38
2019-05-10T01:59:46.566Z,10.30
2019-05-10T02:00:46.539Z,10.31
2019-05-10T02:01:46.490Z,10.34
2019-05-10T02:02:46.452Z,10.23
2019-05-10T02:03:46.412Z,10.22
2019-05-10T02:04:46.370Z,10.23
2019-05-10T02:05:46.330Z,10.19
2019-05-10T02:06:46.292Z,10.28
2019-05-10T02:07:46.254Z,10.25
2019-05-10T02:08:46.209Z,10.33
2019-05-10T02:09:46.173Z,10.28
2019-05-10T02:10:46.144Z,10.31
2019-05-10T02:11:46.099Z,10.23
2019-05-10T02:12:46.057Z,10.28
2019-05-10T02:13:46.016Z,10.26
2019-05-10T02:14:45.975Z,10.28
2019-05-10T02:15:45.933Z,10.28
2019-05-10T02:16:45.896Z,10.31
2019-05-10T02:17:45.860Z,10.33
2019-05-10T02:18:45.819Z,10.30
2019-05-10T02:19:45.781Z,10.35
2019-05-10T02:20:45.742Z,10.33
2019-05-10T02:21:45.705Z,10.35
2019-05-10T02:22:45.658Z,10.38
2019-05-10T02:23:45.618Z,10.31
2019-05-10T02:24:45.583Z,10.38
2019-05-10T02:25:45.549Z,10.30
2019-05-10T02:26:45.500Z,10.23
2019-05-10T02:27:45.459Z,10.41
2019-05-10T02:28:45.420Z,10.30
2019-05-10T02:29:45.389Z,10.41
2019-05-10T02:30:45.347Z,10.42
2019-05-10T02:31:45.312Z,10.40
2019-05-10T02:32:45.271Z,10.41
2019-05-10T02:33:45.226Z,10.44
2019-05-10T02:34:45.187Z,10.38
2019-05-10T02:35:45.146Z,10.41
2019-05-10T02:36:45.109Z,10.42
2019-05-10T02:37:45.067Z,10.40
2019-05-10T02:38:45.034Z,10.44
2019-05-10T02:39:44.990Z,10.41
2019-05-10T02:40:44.949Z,10.53
2019-05-10T02:41:44.925Z,10.56
2019-05-10T02:42:44.871Z,10.57
2019-05-10T02:43:44.836Z,10.59
2019-05-10T02:44:44.792Z,10.54
2019-05-10T02:45:44.754Z,10.49
2019-05-10T02:46:44.709Z,10.56
2019-05-10T02:47:44.670Z,10.48
2019-05-10T02:48:44.630Z,10.54
2019-05-10T02:49:44.634Z,10.53
2019-05-10T02:50:44.553Z,10.60
2019-05-10T02:51:44.522Z,10.64
2019-05-10T02:52:44.475Z,10.60
2019-05-10T02:53:44.434Z,10.64
2019-05-10T02:54:44.402Z,10.67
2019-05-10T02:55:44.354Z,10.76
2019-05-10T02:56:44.320Z,10.67
2019-05-10T02:57:44.281Z,10.76
2019-05-10T02:58:44.238Z,10.74
2019-05-10T02:59:44.199Z,10.78
2019-05-10T03:00:44.155Z,10.74
2019-05-10T03:01:44.119Z,10.76
2019-05-10T03:02:44.082Z,10.72
2019-05-10T03:03:44.046Z,10.71
2019-05-10T03:04:44.003Z,10.68
2019-05-10T03:05:48.177Z,10.68
2019-05-10T03:06:43.921Z,10.69
2019-05-10T03:07:43.880Z,10.63
2019-05-10T03:08:43.840Z,10.67
2019-05-10T03:09:43.803Z,10.60
2019-05-10T03:10:43.767Z,10.64
2019-05-10T03:11:43.727Z,10.61
2019-05-10T03:12:43.682Z,10.51
2019-05-10T03:13:43.646Z,10.59
2019-05-10T03:14:43.611Z,10.59
2019-05-10T03:15:43.567Z,10.59
2019-05-10T03:16:43.532Z,10.54
2019-05-10T03:17:43.491Z,10.51
2019-05-10T03:18:43.453Z,10.59
2019-05-10T03:19:43.406Z,10.57
2019-05-10T03:20:43.370Z,10.60
2019-05-10T03:21:43.334Z,10.57
2019-05-10T03:22:43.330Z,10.57
2019-05-10T03:37:31.951Z,10.46
2019-05-10T03:38:31.863Z,10.51
2019-05-10T03:39:31.818Z,10.57
2019-05-10T03:40:31.765Z,10.53
2019-05-10T03:41:31.730Z,10.54
2019-05-10T03:42:31.687Z,10.54
2019-05-10T03:43:31.642Z,10.60
2019-05-10T03:44:31.607Z,10.64
2019-05-10T03:45:31.557Z,10.69
2019-05-10T03:46:31.518Z,10.64
2019-05-10T03:47:31.478Z,10.68
2019-05-10T03:48:31.441Z,10.67
2019-05-10T03:49:31.399Z,10.64
2019-05-10T03:50:31.365Z,10.74
2019-05-10T03:51:31.316Z,10.72
2019-05-10T03:52:31.293Z,10.68
2019-05-10T03:53:31.234Z,10.72
2019-05-10T03:54:31.203Z,10.71
2019-05-10T03:55:31.151Z,10.78
2019-05-10T03:56:31.116Z,10.71
2019-05-10T03:57:31.083Z,10.71
2019-05-10T03:58:31.031Z,10.74
2019-05-10T03:59:30.992Z,10.69
2019-05-10T04:00:30.956Z,10.75
2019-05-10T04:01:30.913Z,10.64
2019-05-10T04:02:30.873Z,10.63
2019-05-10T04:03:30.830Z,10.71
2019-05-10T04:04:30.806Z,10.64
2019-05-10T04:05:30.749Z,10.59
2019-05-10T04:06:30.710Z,10.67
2019-05-10T04:07:30.673Z,10.64
2019-05-10T04:08:30.640Z,10.68
2019-05-10T04:09:30.615Z,10.72
2019-05-10T04:10:30.553Z,10.75
2019-05-10T04:11:30.514Z,10.79
2019-05-10T04:12:30.469Z,10.84
2019-05-10T04:13:30.435Z,10.82
2019-05-10T04:14:30.395Z,10.86
2019-05-10T04:15:30.374Z,10.79
2019-05-10T04:16:30.313Z,10.81
2019-05-10T04:17:30.275Z,10.81
2019-05-10T04:18:30.237Z,10.86
2019-05-10T04:19:30.196Z,10.81
2019-05-10T04:20:30.159Z,10.82
2019-05-10T04:21:30.124Z,10.82
2019-05-10T04:22:30.085Z,10.78
2019-05-10T04:23:30.037Z,10.81
2019-05-10T04:24:30.027Z,10.84
2019-05-10T04:25:29.956Z,10.84
2019-05-10T04:26:29.924Z,10.86
2019-05-10T04:27:32.817Z,10.82
2019-05-10T04:28:29.843Z,10.79
2019-05-10T04:29:29.837Z,10.78
2019-05-10T04:30:31.768Z,10.75
2019-05-10T04:31:29.731Z,10.82
2019-05-10T04:32:29.685Z,10.75
2019-05-10T04:33:29.646Z,10.76
2019-05-10T04:34:29.603Z,10.79
2019-05-10T04:35:29.561Z,10.71
2019-05-10T04:36:29.542Z,10.78
2019-05-10T04:37:29.492Z,10.76
2019-05-10T04:38:29.463Z,10.78
2019-05-10T04:39:29.404Z,10.74
2019-05-10T04:40:29.376Z,10.72
2019-05-10T04:41:29.331Z,10.71
2019-05-10T04:42:29.284Z,10.78
2019-05-10T04:43:29.251Z,10.67
2019-05-10T04:44:29.218Z,10.61
2019-05-10T04:45:29.207Z,10.67
2019-05-10T04:46:29.128Z,10.60
2019-05-10T04:47:29.088Z,10.76
2019-05-10T04:48:29.054Z,10.63
2019-05-10T04:49:29.008Z,10.64
2019-05-10T04:50:29.004Z,10.61
2019-05-10T04:51:28.931Z,10.71
2019-05-10T04:52:28.897Z,10.71
2019-05-10T04:53:28.866Z,10.74
2019-05-10T04:54:28.824Z,10.72
2019-05-10T04:55:28.770Z,10.72
2019-05-10T04:56:28.730Z,10.79
2019-05-10T04:57:28.690Z,10.76
2019-05-10T04:58:28.651Z,10.81
2019-05-10T04:59:28.614Z,10.84
2019-05-10T05:00:28.577Z,10.87
2019-05-10T05:01:28.532Z,10.76
2019-05-10T05:02:28.494Z,10.84
2019-05-10T05:03:28.455Z,10.87
2019-05-10T05:04:28.418Z,10.89
2019-05-10T05:05:28.379Z,10.86
2019-05-10T05:06:28.339Z,10.82
2019-05-10T05:07:28.298Z,10.79
2019-05-10T05:08:28.255Z,10.87
2019-05-10T05:09:28.223Z,10.86
2019-05-10T05:10:28.185Z,10.89
2019-05-10T05:11:28.140Z,10.89
2019-05-10T05:12:28.110Z,10.81
2019-05-10T05:13:28.065Z,10.89
2019-05-10T05:14:28.025Z,10.90
2019-05-10T05:15:27.984Z,10.90
2019-05-10T05:16:27.946Z,10.86
2019-05-10T05:17:27.909Z,10.89
2019-05-10T05:18:27.869Z,11.02
2019-05-10T05:19:27.834Z,10.94
2019-05-10T05:20:27.783Z,11.02
2019-05-10T05:21:27.747Z,10.90
2019-05-10T05:22:27.706Z,10.92
2019-05-10T05:23:27.675Z,10.97
2019-05-10T05:24:27.637Z,10.99
2019-05-10T05:25:27.592Z,10.87
2019-05-10T05:26:27.553Z,11.02
2019-05-10T05:27:27.509Z,10.94
2019-05-10T05:28:27.468Z,11.07
2019-05-10T05:29:27.432Z,11.04
2019-05-10T05:30:27.394Z,10.97
2019-05-10T05:31:27.364Z,11.07
2019-05-10T05:32:27.318Z,11.18
2019-05-10T05:33:27.277Z,11.10
2019-05-10T05:34:27.237Z,11.18
2019-05-10T05:35:27.201Z,11.08
2019-05-10T05:36:27.161Z,11.19
2019-05-10T05:37:27.123Z,11.36
2019-05-10T05:38:27.082Z,11.41
2019-05-10T05:39:27.065Z,11.57
2019-05-10T05:40:26.999Z,11.63
2019-05-10T05:41:26.959Z,11.59
2019-05-10T05:42:28.051Z,11.47
2019-05-10T05:43:26.883Z,11.65
2019-05-10T05:44:27.848Z,11.54
2019-05-10T05:45:28.388Z,11.52
2019-05-10T05:46:26.769Z,11.50
2019-05-10T05:47:26.727Z,11.52
2019-05-10T05:48:39.469Z,11.50
2019-05-10T05:49:26.652Z,11.55
2019-05-10T05:50:26.620Z,11.55
2019-05-10T05:51:26.574Z,11.48
2019-05-10T05:52:26.530Z,11.60
2019-05-10T05:53:26.493Z,11.72
2019-05-10T05:54:26.459Z,11.95
2019-05-10T05:55:30.526Z,11.86
2019-05-10T05:56:26.379Z,12.09
2019-05-10T05:57:27.474Z,12.07
2019-05-10T05:58:27.211Z,12.06
2019-05-10T05:59:26.424Z,12.12
2019-05-10T06:00:26.217Z,12.17
2019-05-10T06:01:29.436Z,12.03
2019-05-10T06:02:26.140Z,12.00
2019-05-10T06:03:28.106Z,12.00
2019-05-10T06:04:26.073Z,12.00
2019-05-10T06:05:34.125Z,12.04
2019-05-10T06:06:25.987Z,11.99
2019-05-10T06:07:31.171Z,11.97
2019-05-10T06:08:25.913Z,11.84
2019-05-10T06:09:25.875Z,11.87
2019-05-10T06:10:25.852Z,11.86
2019-05-10T06:11:29.736Z,11.84
2019-05-10T06:12:25.753Z,11.86
2019-05-10T06:13:30.407Z,11.77
2019-05-10T06:14:25.679Z,11.73
2019-05-10T06:15:29.548Z,11.73
2019-05-10T06:16:25.610Z,11.70
2019-05-10T06:17:29.354Z,11.70
2019-05-10T06:18:25.523Z,11.69
2019-05-10T06:19:29.392Z,11.69
2019-05-10T06:20:25.448Z,11.70
2019-05-10T06:21:26.786Z,11.72
2019-05-10T06:22:25.369Z,11.68
2019-05-10T06:23:29.030Z,11.66
2019-05-10T06:24:25.292Z,11.57
2019-05-10T06:25:39.273Z,11.62
2019-05-10T06:26:28.523Z,11.62
2019-05-10T06:27:25.187Z,11.59
2019-05-10T06:28:28.914Z,11.59
2019-05-10T06:29:25.101Z,11.55
2019-05-10T06:30:25.060Z,11.65
2019-05-10T06:31:25.020Z,11.60
2019-05-10T06:32:24.983Z,11.60
2019-05-10T06:33:24.942Z,11.65
2019-05-10T06:34:24.903Z,11.66
2019-05-10T06:35:24.869Z,11.70
2019-05-10T06:36:24.874Z,11.73
2019-05-10T06:37:24.789Z,11.75
2019-05-10T06:38:24.748Z,11.78
2019-05-10T06:39:24.740Z,11.75
2019-05-10T06:40:34.222Z,11.73
2019-05-10T06:41:24.641Z,11.75
2019-05-10T06:42:28.752Z,11.72
2019-05-10T06:43:24.583Z,11.70
2019-05-10T06:44:24.887Z,11.69
2019-05-10T06:45:24.478Z,11.73
2019-05-10T06:46:29.226Z,11.70
2019-05-10T06:47:24.404Z,11.75
2019-05-10T06:48:27.575Z,11.73
2019-05-10T06:49:24.328Z,11.70
2019-05-10T06:50:29.999Z,11.70
2019-05-10T06:51:24.247Z,11.69
2019-05-10T06:52:27.764Z,11.68
2019-05-10T06:53:24.176Z,11.68
2019-05-10T06:54:24.135Z,11.62
2019-05-10T06:55:24.094Z,11.68
2019-05-10T06:56:24.053Z,11.68
2019-05-10T06:57:24.013Z,11.70
2019-05-10T06:58:23.977Z,11.65
2019-05-10T06:59:24.976Z,11.68
2019-05-10T07:00:23.902Z,11.75
2019-05-10T07:01:23.864Z,11.65
2019-05-10T07:02:26.124Z,11.59
2019-05-10T07:03:23.783Z,11.50
2019-05-10T07:04:23.749Z,11.52
2019-05-10T07:05:23.705Z,11.65
2019-05-10T07:06:23.668Z,11.63
2019-05-10T07:07:42.600Z,11.66
2019-05-10T07:08:23.595Z,11.73
2019-05-10T07:09:23.550Z,11.62
2019-05-10T07:10:25.342Z,11.78
2019-05-10T07:11:23.485Z,11.87
2019-05-10T07:12:23.452Z,11.84
2019-05-10T07:13:23.402Z,11.77
2019-05-10T07:14:25.592Z,11.84
2019-05-10T07:15:23.320Z,11.87
2019-05-10T07:16:25.576Z,11.86
2019-05-10T07:17:23.243Z,11.86
2019-05-10T07:18:24.261Z,11.88
2019-05-10T07:19:23.167Z,11.87
2019-05-10T07:20:23.564Z,11.69
2019-05-10T07:21:23.102Z,11.77
2019-05-10T07:22:26.788Z,11.75
2019-05-10T07:23:23.013Z,11.86
2019-05-10T07:24:25.049Z,11.86
2019-05-10T07:25:22.939Z,11.87
2019-05-10T07:26:24.257Z,11.86
2019-05-10T07:27:22.860Z,11.99
2019-05-10T07:28:22.818Z,12.00
2019-05-10T07:29:30.133Z,11.80
2019-05-10T07:30:22.741Z,11.87
2019-05-10T07:31:23.612Z,11.83
2019-05-10T07:32:24.671Z,12.00
2019-05-10T07:33:22.629Z,11.88
2019-05-10T07:34:22.594Z,11.97
2019-05-10T07:35:22.556Z,12.02
2019-05-10T07:36:27.551Z,12.10
2019-05-10T07:37:22.470Z,12.10
2019-05-10T07:38:23.622Z,12.12
2019-05-10T07:39:22.399Z,12.04
2019-05-10T07:40:22.361Z,12.07
2019-05-10T07:41:26.757Z,12.02
2019-05-10T07:42:22.281Z,12.06
2019-05-10T07:43:26.663Z,11.99
2019-05-10T07:46:06.183Z,12.03
2019-05-10T07:46:58.478Z,11.99
2019-05-10T07:47:54.292Z,12.00
2019-05-10T07:48:54.517Z,11.77
2019-05-10T07:49:54.142Z,11.62
2019-05-10T07:50:54.105Z,11.63
2019-05-10T07:51:54.059Z,11.81
2019-05-10T07:52:54.023Z,11.86
2019-05-10T07:53:56.971Z,11.86
2019-05-10T07:54:53.947Z,11.94
2019-05-10T07:55:53.916Z,12.09
2019-05-10T07:56:53.870Z,12.20
2019-05-10T07:57:58.940Z,12.25
2019-05-10T07:58:53.789Z,12.37
2019-05-10T07:59:57.737Z,12.43
2019-05-10T08:00:56.112Z,12.47
2019-05-10T08:01:53.681Z,12.62
2019-05-10T08:03:02.449Z,12.73
2019-05-10T08:03:53.605Z,12.87
2019-05-10T08:04:53.799Z,13.05
2019-05-10T08:05:57.016Z,13.13
2019-05-10T08:06:53.484Z,13.30
2019-05-10T08:07:53.450Z,13.35
2019-05-10T08:08:55.378Z,13.33
2019-05-10T08:09:53.374Z,13.49
2019-05-10T08:10:53.340Z,13.52
2019-05-10T08:11:54.140Z,13.46
2019-05-10T08:12:53.260Z,13.44
2019-05-10T08:13:59.768Z,13.31
2019-05-10T08:14:53.673Z,13.31
2019-05-10T08:15:53.143Z,13.42
2019-05-10T08:16:58.601Z,13.23
2019-05-10T08:17:53.072Z,13.19
2019-05-10T08:18:55.779Z,13.27
2019-05-10T08:19:52.996Z,13.13
2019-05-10T08:20:58.157Z,13.11
2019-05-10T08:21:56.497Z,12.87
2019-05-10T08:22:52.886Z,12.95
2019-05-10T08:23:54.043Z,12.90
2019-05-10T08:24:56.020Z,12.95
2019-05-10T08:25:53.439Z,13.04
2019-05-10T08:26:55.595Z,13.08
2019-05-10T08:27:55.274Z,13.15
2019-05-10T08:28:52.752Z,12.97
2019-05-10T08:30:15.772Z,12.98
2019-05-10T08:30:58.526Z,13.05
2019-05-10T08:31:55.404Z,13.08
2019-05-10T08:32:52.707Z,12.98
2019-05-10T08:33:57.276Z,12.97
2019-05-10T08:34:55.742Z,13.12
2019-05-10T08:36:00.365Z,13.12
2019-05-10T08:36:52.354Z,13.15
2019-05-10T08:37:52.971Z,13.16
2019-05-10T08:39:03.448Z,13.16
2019-05-10T08:39:56.049Z,13.25
2019-05-10T08:40:52.807Z,13.39
2019-05-10T08:42:03.709Z,13.44
2019-05-10T08:43:03.113Z,13.49
2019-05-10T08:43:52.533Z,13.50
2019-05-10T08:45:03.273Z,13.70
2019-05-10T08:45:52.440Z,13.81
2019-05-10T08:46:52.517Z,13.95
2019-05-10T08:47:52.880Z,14.10
2019-05-10T08:48:53.872Z,14.20
2019-05-10T08:50:07.947Z,14.12
2019-05-10T08:50:57.112Z,14.11
2019-05-10T08:51:52.241Z,14.15
2019-05-10T08:52:56.518Z,14.23
2019-05-10T08:53:53.517Z,14.30
2019-05-10T08:54:54.901Z,14.33
2019-05-10T08:55:52.462Z,14.48
2019-05-10T08:56:54.953Z,14.30
2019-05-10T08:57:52.522Z,14.41
2019-05-10T08:58:53.652Z,14.36
2019-05-10T08:59:54.187Z,14.41
2019-05-10T09:01:05.253Z,14.37
2019-05-10T09:01:53.679Z,14.45
2019-05-10T09:02:52.101Z,14.53
2019-05-10T09:03:55.204Z,14.50
2019-05-10T09:04:52.919Z,14.68
2019-05-10T09:05:52.532Z,14.73
2019-05-10T09:06:55.499Z,14.77
2019-05-10T09:07:52.060Z,14.72
2019-05-10T09:08:52.810Z,14.81
2019-05-10T09:09:53.119Z,14.89
2019-05-10T09:10:52.965Z,14.69
2019-05-10T09:11:52.209Z,14.63
2019-05-10T09:12:57.578Z,14.68
2019-05-10T09:13:53.197Z,14.73
2019-05-10T09:14:57.466Z,14.65
2019-05-10T09:15:56.081Z,14.65
2019-05-10T09:16:57.628Z,14.66
2019-05-10T09:17:52.577Z,14.69
2019-05-10T09:18:53.385Z,14.89
2019-05-10T09:19:51.787Z,14.92
2019-05-10T09:20:51.855Z,14.84
2019-05-10T09:21:52.840Z,14.88
2019-05-10T09:22:52.749Z,14.72
2019-05-10T09:24:01.304Z,14.70
2019-05-10T09:24:52.492Z,14.89
2019-05-10T09:25:51.887Z,14.88
2019-05-10T09:26:54.910Z,14.85
2019-05-10T09:27:52.939Z,14.88
2019-05-10T09:28:53.406Z,15.03
2019-05-10T09:29:52.886Z,15.04
2019-05-10T09:30:57.596Z,14.99
2019-05-10T09:31:51.202Z,15.10
2019-05-10T09:32:52.042Z,14.97
2019-05-10T09:33:54.055Z,15.15
2019-05-10T09:34:54.091Z,15.11
2019-05-10T09:35:54.630Z,15.02
2019-05-10T09:36:50.155Z,14.73
2019-05-10T09:50:47.051Z,14.45
2019-05-10T09:51:44.066Z,14.45
2019-05-10T09:52:44.130Z,14.37
2019-05-10T09:53:44.387Z,14.53
2019-05-10T09:54:43.926Z,14.48
2019-05-10T09:55:45.660Z,14.59
2019-05-10T09:56:44.993Z,14.62
2019-05-10T09:57:43.809Z,14.62
2019-05-10T09:58:43.771Z,14.45
2019-05-10T09:59:43.735Z,14.51
2019-05-10T10:00:43.692Z,14.59
2019-05-10T10:01:43.654Z,14.53
2019-05-10T10:02:55.092Z,14.62
2019-05-10T10:03:44.965Z,14.62
2019-05-10T10:04:43.544Z,14.70
2019-05-10T10:05:43.507Z,14.73
2019-05-10T10:06:48.231Z,14.72
2019-05-10T10:07:43.440Z,14.62
2019-05-10T10:08:48.126Z,14.59
2019-05-10T10:09:44.981Z,14.72
2019-05-10T10:10:43.320Z,14.73
2019-05-10T10:11:48.559Z,14.88
2019-05-10T10:12:43.244Z,15.03
2019-05-10T10:13:44.115Z,15.06
2019-05-10T10:14:43.343Z,15.17
2019-05-10T10:15:46.521Z,15.19
2019-05-10T10:16:49.460Z,15.21
2019-05-10T10:17:43.059Z,15.28
2019-05-10T10:18:43.024Z,15.31
2019-05-10T10:19:42.989Z,15.27
2019-05-10T10:20:44.955Z,15.11
2019-05-10T10:21:42.914Z,15.11
2019-05-10T10:22:43.386Z,15.19
2019-05-10T10:23:42.837Z,15.18
2019-05-10T10:24:42.812Z,15.24
2019-05-10T10:25:42.769Z,15.28
2019-05-10T10:26:42.732Z,15.31
2019-05-10T10:27:42.693Z,15.42
2019-05-10T10:28:42.663Z,15.46
2019-05-10T10:29:42.626Z,15.44
2019-05-10T10:30:42.597Z,15.57
2019-05-10T10:31:51.411Z,15.51
2019-05-10T10:32:44.514Z,15.46
2019-05-10T10:33:43.076Z,15.31
2019-05-10T10:34:43.170Z,15.33
2019-05-10T10:35:42.406Z,15.39
2019-05-10T10:36:44.108Z,15.36
2019-05-10T10:37:42.335Z,15.17
2019-05-10T10:38:45.471Z,14.92
2019-05-10T10:39:42.269Z,15.07
2019-05-10T10:40:44.951Z,15.00
2019-05-10T10:41:42.191Z,14.96
2019-05-10T10:42:42.159Z,14.88
2019-05-10T10:43:42.123Z,14.78
2019-05-10T10:44:42.081Z,14.79
2019-05-10T10:45:42.048Z,14.82
2019-05-10T10:46:42.012Z,14.99
2019-05-10T10:47:41.973Z,15.06
2019-05-10T10:48:43.687Z,15.28
2019-05-10T10:49:41.904Z,15.36
2019-05-10T10:50:44.303Z,15.59
2019-05-10T10:51:41.837Z,15.65
2019-05-10T10:52:41.794Z,15.59
2019-05-10T10:53:41.757Z,15.75
2019-05-10T10:54:41.731Z,15.92
2019-05-10T10:55:48.489Z,15.91
2019-05-10T10:56:41.655Z,16.04
2019-05-10T10:57:41.618Z,16.10
2019-05-10T10:58:41.579Z,16.12
2019-05-10T10:59:41.571Z,16.17
2019-05-10T11:00:41.512Z,16.35
2019-05-10T11:01:49.539Z,16.46
2019-05-10T11:02:41.949Z,16.36
2019-05-10T11:03:41.404Z,16.43
2019-05-10T11:04:46.928Z,16.49
2019-05-10T11:05:41.329Z,16.53
2019-05-10T11:06:41.296Z,16.43
2019-05-10T11:07:45.137Z,16.46
2019-05-10T11:08:41.377Z,16.46
2019-05-10T11:09:41.193Z,16.46
2019-05-10T11:10:42.785Z,16.29
2019-05-10T11:11:44.332Z,16.26
2019-05-10T11:12:41.384Z,16.08
2019-05-10T11:13:45.419Z,15.88
2019-05-10T11:14:45.142Z,15.75
2019-05-10T11:15:42.000Z,15.62
2019-05-10T11:16:41.396Z,15.75
2019-05-10T11:17:40.984Z,15.68
2019-05-10T11:18:41.785Z,15.64
2019-05-10T11:19:41.752Z,15.49
2019-05-10T11:20:41.970Z,15.49
2019-05-10T11:21:41.493Z,15.44
2019-05-10T11:22:41.937Z,15.46
2019-05-10T11:23:41.962Z,15.51
2019-05-10T11:24:40.658Z,15.55
2019-05-10T11:25:42.670Z,15.59
2019-05-10T11:26:41.003Z,15.70
2019-05-10T11:27:41.581Z,15.88
2019-05-10T11:28:44.235Z,16.08
2019-05-10T11:29:41.822Z,16.23
2019-05-10T11:30:40.448Z,16.56
2019-05-10T11:31:41.343Z,16.53
2019-05-10T11:32:41.841Z,16.64
2019-05-10T11:33:41.580Z,16.90
2019-05-10T11:34:40.306Z,16.99
2019-05-10T11:35:51.189Z,16.90
2019-05-10T11:37:45.641Z,16.50
2019-05-10T11:38:47.118Z,16.68
2019-05-10T11:39:53.766Z,16.50
2019-05-10T11:41:52.920Z,16.66
2019-05-10T11:42:50.910Z,16.68
2019-05-10T11:43:49.322Z,16.75
2019-05-10T11:44:57.906Z,16.83
2019-05-10T11:46:53.806Z,16.94
2019-05-10T11:48:02.454Z,17.11
2019-05-10T11:49:58.176Z,17.11
2019-05-10T15:37:12.041Z,15.83
2019-05-10T15:38:12.385Z,15.98
2019-05-10T15:39:16.873Z,15.83
2019-05-10T15:40:11.142Z,15.83
2019-05-10T15:41:22.199Z,15.92
2019-05-10T15:42:11.150Z,15.83
2019-05-10T15:43:16.662Z,15.84
2019-05-10T15:44:10.710Z,15.92
2019-05-10T15:45:19.358Z,15.82
2019-05-10T15:46:11.774Z,15.86
2019-05-10T15:47:20.198Z,15.91
2019-05-10T15:48:10.673Z,15.92
2019-05-10T15:49:23.170Z,15.94
2019-05-10T15:50:21.186Z,15.91
2019-05-10T15:51:34.863Z,15.95
2019-05-10T15:52:18.327Z,16.08
2019-05-10T15:53:19.285Z,16.08
2019-05-10T15:54:20.809Z,16.15
2019-05-10T15:55:24.158Z,16.15
2019-05-10T15:56:10.583Z,16.15
2019-05-10T15:57:14.593Z,16.09
2019-05-10T15:58:16.762Z,16.16
2019-05-10T15:59:18.748Z,16.13
2019-05-10T16:00:14.441Z,16.13
2019-05-10T16:01:13.984Z,16.20
2019-05-10T16:02:17.946Z,16.24
2019-05-10T16:03:21.956Z,16.23
2019-05-10T16:04:15.814Z,16.23
2019-05-10T16:05:23.890Z,16.28
2019-05-10T16:06:17.797Z,16.16
2019-05-10T16:07:14.436Z,16.26
2019-05-10T16:08:13.660Z,16.21
2019-05-10T16:09:17.655Z,16.26
2019-05-10T16:10:09.972Z,16.31
2019-05-10T16:11:17.818Z,16.28
2019-05-10T16:12:19.066Z,16.20
2019-05-10T16:13:14.349Z,16.16
2019-05-10T16:14:20.793Z,16.10
2019-05-10T16:15:21.112Z,16.08
2019-05-10T16:16:21.380Z,16.10
2019-05-10T16:17:23.128Z,16.12
2019-05-10T16:18:22.015Z,16.15
2019-05-10T16:19:21.199Z,16.09
2019-05-10T16:20:22.104Z,16.15
2019-05-10T16:21:20.150Z,16.10
2019-05-10T16:22:30.160Z,16.24
2019-05-10T16:23:20.183Z,16.31
2019-05-10T16:25:18.631Z,16.33
2019-05-10T16:27:20.326Z,16.38
2019-05-10T16:29:22.823Z,16.39
2019-05-10T16:30:18.272Z,16.43
2019-05-10T16:31:18.263Z,16.41
2019-05-10T16:32:21.010Z,16.42
2019-05-10T16:33:16.026Z,16.36
2019-05-10T16:34:26.284Z,16.39
2019-05-10T16:35:14.601Z,16.33
2019-05-10T16:36:22.732Z,16.41
2019-05-10T16:37:21.314Z,16.39
2019-05-10T16:38:22.327Z,16.39
2019-05-10T16:39:14.159Z,16.38
2019-05-10T16:40:23.049Z,16.32
2019-05-10T16:41:17.115Z,16.26
2019-05-10T16:42:18.955Z,16.13
2019-05-10T16:43:24.594Z,16.16
2019-05-10T16:44:14.857Z,16.17
2019-05-10T16:45:17.603Z,16.13
2019-05-10T16:46:20.449Z,16.20
2019-05-10T16:47:21.610Z,16.16
2019-05-10T16:48:21.748Z,16.21
2019-05-10T16:49:19.998Z,16.16
2019-05-10T16:50:25.844Z,16.16
2019-05-10T16:51:18.639Z,16.10
2019-05-10T16:52:25.765Z,16.08
2019-05-10T16:53:16.868Z,16.08
2019-05-10T16:54:19.112Z,16.16
2019-05-10T16:55:13.948Z,16.09
2019-05-10T16:56:08.254Z,16.16
2019-05-10T16:57:08.438Z,16.15
2019-05-10T16:58:14.942Z,16.02
2019-05-10T16:59:24.182Z,16.12
2019-05-10T17:00:16.020Z,16.09
2019-05-10T17:01:18.486Z,16.04
2019-05-10T17:02:14.321Z,16.04
2019-05-10T17:03:20.783Z,16.17
2019-05-10T17:04:19.600Z,16.28
2019-05-10T17:05:09.561Z,16.17
2019-05-10T17:06:08.069Z,16.26
2019-05-10T17:07:18.698Z,16.26
2019-05-10T17:08:18.791Z,16.31
2019-05-10T17:09:19.684Z,16.31
2019-05-10T17:10:20.705Z,16.31
2019-05-10T17:11:20.382Z,16.36
2019-05-10T17:12:08.837Z,16.38
2019-05-10T17:13:20.533Z,16.38
2019-05-10T17:14:17.729Z,16.31
2019-05-10T17:15:16.845Z,16.36